Waynesville, GA

9:36 AM EDT on August 30, 2016 (GMT -0400)
Timber Landing | | Change Station

Elev 43 ft 31.19 °N, 81.61 °W | Updated 3 seconds ago

Scattered Clouds
Scattered Clouds
83.5 °F
Feels Like 94 °F
N
1.6
Wind Variable Wind from North
Gusts 4.5 mph

Today
High -- | Low -- °F
--% Chance of Precip.
Yesterday
High -- | Low -- °F
Precip. -- in
Pressure 30.03 in
Visibility 10.0 miles
Clouds Scattered Clouds 2600 ft
Heat Index 94 °F
Dew Point 78 °F
Humidity 83%
Rainfall 0.02 in
Snow Depth Not available.
7:02 AM 7:52 PM
Waning Crescent, 4% visible
METAR KBQK 301315Z AUTO 02005KT 10SM SCT026 28/26 A3003 RMK AO2 LTG DSNT NE
Pressure 30.03 in
Visibility 10.0 miles
Clouds Scattered Clouds 2600 ft
Heat Index 94 °F
Dew Point 78 °F
Humidity 83%
Rainfall 0.02 in
Snow Depth Not available.
7:02 AM 7:52 PM
Waning Crescent, 4% visible
METAR KBQK 301315Z AUTO 02005KT 10SM SCT026 28/26 A3003 RMK AO2 LTG DSNT NE

10-Day Weather Forecast

Almanac

Astronomy

Aug. 30, 2016 Rise Set
Actual Time
Civil Twilight
Nautical Twilight
Astronomical Twilight
Moon
Length of Visible Light
Length of Day
Tomorrow will be .
, % of the Moon is Illuminated

Today's Extremes

State Highs State Lows

Community

WunderPhotos

Upload Photos

1,935,831 photos uploaded!

WunderBlog® & News

Nearby

Air Quality

  Air Quality AQ Index Pollutant
Not available.

Snow Depth

Station Depth Elevation

Earthquake Activity

City Distance Mag. Time & Date
Minimum magnitude displayed is 2.5.

Coastal Water Temperatures

Place Temperature

Stations

Nearby Weather Stations

Station Location Temp. Windchill Dew Point Humidity Wind Precip. Elev Updated Type
                   

Watches & Warnings

There are currently no watches in effect.